Time;durP1;ratioP1;P1;durP2;ratioP2;P2;SDS_P1;SDS_P2;PMS_P1;PMS_P2;Temp;Humidity;BMP_temperature;BMP_pressure;BME280_temperature;BME280_humidity;BME280_pressure;Samples;Min_cycle;Max_cycle;Signal;HPM_P1;HPM_P2
2023/10/16 00:01:54;;;;;;;1.67;0.50;;;9.00;99.90;;;;;;4216570;28;20052;-83
2023/10/16 00:03:56;;;;;;;1.63;0.30;;;8.00;99.90;;;;;;4216169;28;20048;-83
2023/10/16 00:05:56;;;;;;;1.23;0.50;;;8.40;99.90;;;;;;4215873;28;20119;-83
2023/10/16 00:08:07;;;;;;;2.30;0.60;;;8.60;99.90;;;;;;4232732;28;20051;-83
2023/10/16 00:10:11;;;;;;;3.30;0.60;;;8.40;99.90;;;;;;4234223;28;20040;-83
2023/10/16 00:12:12;;;;;;;4.07;0.57;;;8.40;99.90;;;;;;4199447;28;20049;-83
2023/10/16 00:14:23;;;;;;;4.22;0.50;;;8.30;99.90;;;;;;4233986;28;20476;-83
2023/10/16 00:16:24;;;;;;;3.30;0.40;;;9.60;99.90;;;;;;4199096;28;20195;-84
2023/10/16 00:18:45;;;;;;;1.27;0.47;;;8.20;99.90;;;;;;4216154;28;20466;-83
2023/10/16 00:20:46;;;;;;;2.85;0.85;;;8.20;99.90;;;;;;4235089;28;20079;-83
2023/10/16 00:22:47;;;;;;;2.42;1.20;;;8.70;99.90;;;;;;4234284;28;20412;-83
2023/10/16 00:24:48;;;;;;;3.70;0.70;;;8.30;99.90;;;;;;4234741;28;20043;-84
2023/10/16 00:26:49;;;;;;;4.00;0.70;;;8.10;99.90;;;;;;4216600;28;20515;-83
2023/10/16 00:29:03;;;;;;;0.95;0.50;;;8.30;99.90;;;;;;4215909;28;20119;-84
2023/10/16 00:31:04;;;;;;;5.75;0.85;;;8.20;99.90;;;;;;4215977;28;20109;-83
2023/10/16 00:33:13;;;;;;;4.78;1.00;;;8.50;99.90;;;;;;4236303;27;20059;-84
2023/10/16 00:35:15;;;;;;;5.30;1.50;;;8.10;99.90;;;;;;4216011;28;20059;-84
2023/10/16 00:37:20;;;;;;;3.67;0.85;;;8.20;99.90;;;;;;4216485;28;20048;-84
2023/10/16 00:39:22;;;;;;;4.13;1.55;;;7.80;99.90;;;;;;4250948;27;20039;-84
2023/10/16 00:41:28;;;;;;;4.20;1.10;;;9.00;99.90;;;;;;4233248;28;20130;-84
2023/10/16 00:43:32;;;;;;;4.05;1.08;;;8.80;99.90;;;;;;4244605;27;20047;-84
2023/10/16 00:45:45;;;;;;;4.32;1.85;;;8.50;99.90;;;;;;4251312;27;20487;-84
2023/10/16 00:47:47;;;;;;;4.30;1.42;;;8.20;99.90;;;;;;4250962;27;20111;-84
2023/10/16 00:49:49;;;;;;;4.97;1.20;;;8.00;99.90;;;;;;4251124;27;20058;-83
2023/10/16 00:51:50;;;;;;;3.15;1.20;;;8.80;99.90;;;;;;4250945;27;20050;-84
2023/10/16 00:53:52;;;;;;;3.35;0.88;;;8.20;99.90;;;;;;4215596;28;20076;-84
2023/10/16 00:55:55;;;;;;;1.15;0.65;;;8.40;99.90;;;;;;4232930;28;20040;-84
2023/10/16 00:57:58;;;;;;;2.60;0.60;;;8.50;99.90;;;;;;4215371;28;20102;-83
2023/10/16 00:59:59;;;;;;;2.72;0.68;;;8.40;99.90;;;;;;4250184;27;20495;-84
2023/10/16 01:02:35;;;;;;;2.97;0.90;;;8.50;99.90;;;;;;4215945;28;20054;-82
2023/10/16 01:04:29;;;;;;;3.78;0.70;;;8.20;99.90;;;;;;4245290;27;20526;-82
2023/10/16 01:06:41;;;;;;;3.03;0.52;;;8.00;99.90;;;;;;4250115;27;20046;-84
2023/10/16 01:08:51;;;;;;;3.70;1.00;;;9.00;99.90;;;;;;4250644;27;20531;-84
2023/10/16 01:23:44;;;;;;;7.70;1.23;;;7.30;99.90;;;;;;4225001;28;20499;-81
2023/10/16 01:25:48;;;;;;;3.58;0.52;;;8.10;99.90;;;;;;4214647;28;20105;-83
2023/10/16 01:27:49;;;;;;;2.22;0.65;;;6.40;99.90;;;;;;4232636;28;20045;-83
2023/10/16 01:29:52;;;;;;;1.23;0.50;;;8.10;99.90;;;;;;4232827;28;20058;-81
2023/10/16 01:31:53;;;;;;;5.00;0.80;;;8.00;99.90;;;;;;4232673;28;20453;-81
2023/10/16 01:33:54;;;;;;;4.00;0.88;;;8.20;99.90;;;;;;4214380;28;20055;-81
2023/10/16 01:35:56;;;;;;;3.22;1.15;;;8.10;99.90;;;;;;4213947;28;20059;-81
2023/10/16 01:37:56;;;;;;;6.38;0.85;;;8.90;99.90;;;;;;4231830;28;20267;-81
2023/10/16 01:40:14;;;;;;;4.50;1.25;;;8.80;99.90;;;;;;4232440;28;20411;-81
2023/10/16 01:42:16;;;;;;;1.92;0.77;;;8.10;99.90;;;;;;4214222;28;20413;-81
2023/10/16 01:44:18;;;;;;;2.60;0.93;;;8.00;99.90;;;;;;4232478;28;20082;-81
2023/10/16 01:46:18;;;;;;;4.15;1.05;;;9.00;99.90;;;;;;4213575;28;20036;-80
2023/10/16 01:48:19;;;;;;;5.57;1.00;;;7.60;99.90;;;;;;4228182;28;20046;-81
2023/10/16 01:50:23;;;;;;;4.03;0.88;;;9.20;99.90;;;;;;4232407;28;20079;-81
2023/10/16 01:52:25;;;;;;;5.13;1.15;;;9.20;99.90;;;;;;4232623;28;20384;-81
2023/10/16 01:54:26;;;;;;;3.25;1.20;;;8.50;99.90;;;;;;4214401;28;20136;-81
2023/10/16 01:56:27;;;;;;;1.90;1.10;;;6.90;99.90;;;;;;4231806;28;20040;-81
2023/10/16 01:58:30;;;;;;;3.20;1.20;;;8.40;99.90;;;;;;4231951;28;20055;-81
2023/10/16 02:00:34;;;;;;;2.92;1.00;;;9.20;99.90;;;;;;4214010;28;20519;-81
2023/10/16 02:02:39;;;;;;;4.95;0.95;;;7.80;99.90;;;;;;4232167;28;20047;-81
2023/10/16 02:04:41;;;;;;;2.95;0.70;;;7.90;99.90;;;;;;4231203;28;20043;-81
2023/10/16 02:06:41;;;;;;;1.52;0.73;;;8.30;99.90;;;;;;4232376;28;20051;-81
2023/10/16 02:08:44;;;;;;;6.28;1.00;;;9.20;99.90;;;;;;4232482;28;20043;-81
2023/10/16 02:10:44;;;;;;;3.78;1.45;;;8.00;99.90;;;;;;4214042;28;20484;-81
2023/10/16 02:12:45;;;;;;;2.30;0.93;;;7.70;99.90;;;;;;4213887;28;20124;-81
2023/10/16 02:14:46;;;;;;;2.53;1.05;;;8.90;99.90;;;;;;4232111;28;20478;-81
2023/10/16 02:16:47;;;;;;;1.20;0.85;;;7.70;99.90;;;;;;4232021;28;20047;-81
2023/10/16 02:18:48;;;;;;;1.30;0.70;;;8.30;99.90;;;;;;4229624;28;20059;-81
2023/10/16 02:20:51;;;;;;;2.67;0.60;;;9.00;99.90;;;;;;4231532;28;20044;-81
2023/10/16 02:22:53;;;;;;;2.40;1.00;;;9.20;99.90;;;;;;4197104;28;20543;-81
2023/10/16 02:24:57;;;;;;;4.63;0.57;;;8.40;99.90;;;;;;4232390;28;20050;-80
2023/10/16 02:27:02;;;;;;;2.53;0.70;;;8.80;99.90;;;;;;4197603;28;20431;-81
2023/10/16 02:29:04;;;;;;;7.82;0.70;;;9.00;99.90;;;;;;4233070;28;20403;-81
2023/10/16 02:31:16;;;;;;;2.50;0.70;;;8.50;99.90;;;;;;4232504;28;20050;-81
2023/10/16 02:33:26;;;;;;;5.32;0.85;;;7.70;99.90;;;;;;4214559;28;20044;-81
2023/10/16 02:35:27;;;;;;;1.90;0.90;;;7.30;99.90;;;;;;4233221;28;20048;-81
2023/10/16 02:37:28;;;;;;;5.85;0.90;;;8.90;99.90;;;;;;4232776;28;20119;-81
2023/10/16 02:39:35;;;;;;;2.95;0.90;;;9.10;99.90;;;;;;4235708;28;20492;-80
2023/10/16 02:41:36;;;;;;;4.03;0.70;;;8.70;99.90;;;;;;4234064;28;20551;-80
2023/10/16 02:43:37;;;;;;;5.03;0.90;;;7.60;99.90;;;;;;4223669;28;20047;-81
2023/10/16 02:45:37;;;;;;;2.95;0.90;;;8.80;99.90;;;;;;4233669;28;20426;-81
2023/10/16 02:47:38;;;;;;;4.60;0.77;;;8.80;99.90;;;;;;4233412;28;20464;-81
2023/10/16 02:49:47;;;;;;;3.72;1.10;;;8.60;99.90;;;;;;4247045;28;20087;-80
2023/10/16 02:51:48;;;;;;;3.40;1.52;;;7.50;99.90;;;;;;4229149;28;20052;-81
2023/10/16 02:53:51;;;;;;;1.08;0.50;;;7.50;99.90;;;;;;4215673;28;20115;-81
2023/10/16 02:56:05;;;;;;;3.53;0.80;;;8.90;99.90;;;;;;4216208;28;20124;-81
2023/10/16 02:58:11;;;;;;;3.50;0.70;;;9.10;99.90;;;;;;4214226;28;20097;-81
2023/10/16 03:00:20;;;;;;;1.65;1.08;;;8.80;99.90;;;;;;4214769;28;20129;-81
2023/10/16 03:02:25;;;;;;;4.13;1.00;;;7.60;99.90;;;;;;4230966;28;20036;-81
2023/10/16 03:04:27;;;;;;;2.40;1.05;;;8.20;99.90;;;;;;4213646;28;20094;-81
2023/10/16 03:06:30;;;;;;;5.15;0.80;;;8.60;99.90;;;;;;4214772;28;20059;-81
2023/10/16 03:08:32;;;;;;;4.88;0.75;;;7.70;99.90;;;;;;4214349;28;20044;-81
2023/10/16 03:10:32;;;;;;;5.28;0.75;;;8.00;99.90;;;;;;4230826;28;20063;-81
2023/10/16 03:12:33;;;;;;;1.95;0.50;;;7.70;99.90;;;;;;4231631;28;20114;-81
2023/10/16 03:14:51;;;;;;;2.22;0.63;;;8.80;99.90;;;;;;4231539;28;20164;-81
2023/10/16 03:16:56;;;;;;;1.40;0.40;;;7.70;99.90;;;;;;4231679;28;20047;-81
2023/10/16 03:19:09;;;;;;;12.50;0.93;;;8.70;99.90;;;;;;4231672;28;20039;-81
2023/10/16 03:23:13;;;;;;;6.72;0.77;;;7.70;99.90;;;;;;4231608;28;20131;-81
2023/10/16 03:25:28;;;;;;;5.65;0.60;;;8.50;99.90;;;;;;4231140;28;20036;-81
2023/10/16 03:27:32;;;;;;;5.75;0.40;;;7.90;99.90;;;;;;4231611;28;20475;-81
2023/10/16 03:29:33;;;;;;;1.05;0.50;;;7.70;99.90;;;;;;4230365;28;20377;-81
2023/10/16 03:31:36;;;;;;;2.03;0.60;;;7.70;99.90;;;;;;4233127;28;20055;-81
2023/10/16 03:33:37;;;;;;;1.38;0.40;;;7.80;99.90;;;;;;4234243;28;20468;-81
2023/10/16 03:35:41;;;;;;;3.45;0.52;;;8.20;99.90;;;;;;4233310;28;20118;-81
2023/10/16 03:37:43;;;;;;;8.18;1.15;;;8.80;99.90;;;;;;4234592;28;20106;-81
2023/10/16 03:39:44;;;;;;;2.92;0.43;;;7.80;99.90;;;;;;4234455;28;20043;-81
2023/10/16 03:41:48;;;;;;;5.32;0.90;;;7.80;99.90;;;;;;4232874;28;20044;-81
2023/10/16 03:43:56;;;;;;;5.55;0.60;;;7.80;99.90;;;;;;4234865;28;20047;-81
2023/10/16 03:46:02;;;;;;;4.10;0.70;;;8.10;99.90;;;;;;4234283;28;20047;-81
2023/10/16 03:48:04;;;;;;;7.60;2.08;;;7.10;99.90;;;;;;4234197;28;20502;-81
2023/10/16 03:50:06;;;;;;;2.72;0.52;;;7.80;99.90;;;;;;4237941;27;20494;-81
2023/10/16 03:52:08;;;;;;;7.15;0.50;;;7.80;99.90;;;;;;4251181;27;20498;-81
2023/10/16 03:54:12;;;;;;;1.90;0.68;;;9.20;99.90;;;;;;4251279;27;20054;-81
2023/10/16 03:56:13;;;;;;;3.30;0.52;;;9.20;99.90;;;;;;4251176;27;20091;-81
2023/10/16 03:58:14;;;;;;;3.13;0.57;;;8.80;99.90;;;;;;4250667;27;20117;-81
2023/10/16 04:00:25;;;;;;;6.30;0.68;;;9.00;99.90;;;;;;4232596;28;20130;-81
2023/10/16 04:02:31;;;;;;;1.33;0.50;;;7.80;99.90;;;;;;4251334;27;20087;-81
2023/10/16 04:04:32;;;;;;;2.97;0.47;;;8.70;99.90;;;;;;4251138;27;20041;-81
2023/10/16 04:06:39;;;;;;;2.55;0.55;;;7.90;99.90;;;;;;4251024;27;20067;-81
2023/10/16 04:08:40;;;;;;;1.75;0.50;;;8.30;99.90;;;;;;4250788;27;20118;-81
2023/10/16 04:10:47;;;;;;;2.17;0.43;;;9.00;99.90;;;;;;4240305;27;20499;-80
2023/10/16 04:12:51;;;;;;;1.92;0.30;;;7.90;99.90;;;;;;4215614;28;20089;-81
2023/10/16 04:15:04;;;;;;;3.03;0.50;;;9.00;99.90;;;;;;4248035;27;20054;-81
2023/10/16 04:17:07;;;;;;;4.95;0.57;;;7.90;99.90;;;;;;4251030;27;20448;-81
2023/10/16 04:23:37;;;;;;;4.55;1.15;;;8.80;99.90;;;;;;4250827;27;20050;-80
2023/10/16 04:26:19;;;;;;;2.38;0.40;;;8.00;99.90;;;;;;4250946;27;20047;-83
2023/10/16 04:28:09;;;;;;;1.10;0.50;;;9.00;99.90;;;;;;4250510;27;20054;-83
2023/10/16 04:30:32;;;;;;;2.00;0.50;;;8.00;99.90;;;;;;4250504;27;20092;-81
2023/10/16 04:32:40;;;;;;;5.15;0.73;;;8.00;99.90;;;;;;4250649;27;20051;-81
2023/10/16 04:34:52;;;;;;;3.33;0.50;;;8.70;99.90;;;;;;4250765;27;20429;-81
2023/10/16 04:44:49;;;;;;;3.40;1.05;;;8.00;99.90;;;;;;4232841;28;20483;-79
2023/10/16 04:46:57;;;;;;;2.85;0.50;;;8.00;99.90;;;;;;4232820;28;20134;-79
2023/10/16 04:48:58;;;;;;;3.38;0.40;;;8.10;99.90;;;;;;4232756;28;20035;-79
2023/10/16 04:51:16;;;;;;;1.33;0.70;;;8.70;99.90;;;;;;4232119;28;20058;-79
2023/10/16 04:53:27;;;;;;;1.67;0.57;;;8.10;99.90;;;;;;4232930;28;20044;-80
2023/10/16 04:57:47;;;;;;;3.35;0.45;;;8.80;99.90;;;;;;4232402;28;20162;-79
2023/10/16 05:00:12;;;;;;;3.58;0.82;;;8.10;99.90;;;;;;4232422;28;20092;-78
2023/10/16 05:06:56;;;;;;;4.00;0.75;;;8.30;99.90;;;;;;4232583;28;20128;-79
2023/10/16 05:16:47;;;;;;;4.78;0.73;;;8.00;99.90;;;;;;4213288;28;20110;-79
2023/10/16 05:18:46;;;;;;;2.05;0.55;;;8.10;99.90;;;;;;4211994;28;20056;-79
2023/10/16 05:21:18;;;;;;;4.13;0.65;;;8.40;99.90;;;;;;4213430;28;20135;-79
2023/10/16 06:14:40;;;;;;;3.08;0.47;;;8.00;99.90;;;;;;4248614;27;20393;-79
2023/10/16 06:16:46;;;;;;;6.05;1.40;;;9.20;99.90;;;;;;4245447;27;20039;-79
2023/10/16 06:18:48;;;;;;;6.60;1.17;;;8.00;99.90;;;;;;4230954;28;20046;-79
2023/10/16 06:20:52;;;;;;;9.80;1.00;;;8.00;99.90;;;;;;4231409;28;20500;-79
2023/10/16 06:22:53;;;;;;;5.10;1.02;;;8.10;99.90;;;;;;4231471;28;20800;-79
2023/10/16 06:24:53;;;;;;;3.60;0.80;;;8.10;99.90;;;;;;4231396;28;20044;-79
2023/10/16 06:27:01;;;;;;;3.15;0.80;;;8.10;99.90;;;;;;4231125;28;20131;-79
2023/10/16 06:29:02;;;;;;;2.15;0.60;;;8.10;99.90;;;;;;4212982;28;20091;-79
2023/10/16 06:31:05;;;;;;;5.75;1.00;;;8.60;99.90;;;;;;4231238;28;20040;-79
2023/10/16 06:33:06;;;;;;;5.22;1.42;;;8.10;99.90;;;;;;4231339;28;20110;-79
2023/10/16 06:35:08;;;;;;;6.65;1.55;;;8.50;99.90;;;;;;4231265;28;20078;-79
2023/10/16 06:37:09;;;;;;;3.20;0.95;;;7.80;99.90;;;;;;4231174;28;20051;-79
2023/10/16 06:39:22;;;;;;;5.60;0.93;;;8.10;99.90;;;;;;4231002;28;20032;-79
2023/10/16 06:41:23;;;;;;;4.35;0.82;;;8.80;99.90;;;;;;4196212;28;20055;-79
2023/10/16 06:43:26;;;;;;;5.82;1.40;;;8.20;99.90;;;;;;4231043;28;20468;-79
2023/10/16 06:45:40;;;;;;;4.78;1.10;;;8.20;99.90;;;;;;4231098;28;20047;-79
2023/10/16 06:47:47;;;;;;;5.03;1.17;;;8.20;99.90;;;;;;4231134;28;20484;-80
2023/10/16 06:49:49;;;;;;;5.00;1.23;;;9.30;99.90;;;;;;4230990;28;20055;-79
2023/10/16 06:51:50;;;;;;;4.97;1.27;;;8.20;99.90;;;;;;4230818;28;20122;-79
2023/10/16 06:53:51;;;;;;;4.65;1.63;;;8.20;99.90;;;;;;4231079;28;20487;-80
2023/10/16 06:55:51;;;;;;;7.35;1.00;;;8.30;99.90;;;;;;4231184;28;20076;-79
2023/10/16 06:57:52;;;;;;;2.00;1.02;;;8.30;99.90;;;;;;4230914;28;20048;-79
2023/10/16 06:59:55;;;;;;;6.78;1.80;;;8.30;99.90;;;;;;4214052;28;20171;-80
2023/10/16 07:01:56;;;;;;;4.32;0.70;;;8.40;99.90;;;;;;4230862;28;20096;-80
2023/10/16 07:03:56;;;;;;;4.00;1.00;;;8.40;99.90;;;;;;4231080;28;20040;-80
2023/10/16 07:05:57;;;;;;;6.00;1.23;;;9.20;99.90;;;;;;4214814;28;20048;-80
2023/10/16 07:07:59;;;;;;;11.27;1.20;;;8.70;99.90;;;;;;4234420;28;20046;-80
2023/10/16 07:10:01;;;;;;;3.10;1.00;;;8.50;99.90;;;;;;4234101;28;20046;-80
2023/10/16 07:12:03;;;;;;;6.13;1.23;;;8.50;99.90;;;;;;4233961;28;20048;-80
2023/10/16 07:14:10;;;;;;;8.90;1.27;;;8.50;99.90;;;;;;4216086;28;20048;-80
2023/10/16 07:16:15;;;;;;;1.80;1.13;;;8.50;99.90;;;;;;4233737;28;20369;-80
2023/10/16 07:18:16;;;;;;;5.85;1.20;;;8.60;99.90;;;;;;4233997;28;20122;-80
2023/10/16 07:20:26;;;;;;;8.63;1.30;;;8.60;99.90;;;;;;4234095;28;20051;-80
2023/10/16 07:22:33;;;;;;;3.88;1.58;;;8.60;99.90;;;;;;4234109;27;20107;-80
2023/10/16 07:24:34;;;;;;;6.93;1.20;;;8.60;99.90;;;;;;4225929;28;20515;-81
2023/10/16 07:26:35;;;;;;;5.63;1.30;;;8.50;99.90;;;;;;4251084;27;20062;-80
2023/10/16 07:28:38;;;;;;;7.90;1.48;;;8.60;99.90;;;;;;4251144;27;20122;-80
2023/10/16 07:30:42;;;;;;;8.35;1.85;;;8.60;99.90;;;;;;4250713;27;20035;-80
2023/10/16 07:32:43;;;;;;;4.45;1.20;;;8.60;99.90;;;;;;4251122;27;20039;-79
2023/10/16 07:34:44;;;;;;;4.63;1.45;;;9.10;99.90;;;;;;4232764;28;20122;-80
2023/10/16 07:36:46;;;;;;;6.53;1.20;;;8.70;99.90;;;;;;4240191;27;20043;-82
2023/10/16 07:38:50;;;;;;;4.95;1.48;;;8.70;99.90;;;;;;4246658;27;20046;-81
2023/10/16 07:40:53;;;;;;;3.35;1.02;;;9.50;99.90;;;;;;4232781;28;20036;-81
2023/10/16 07:42:56;;;;;;;10.55;1.77;;;8.90;99.90;;;;;;4242197;27;20054;-81
2023/10/16 07:44:56;;;;;;;3.42;1.58;;;9.00;99.90;;;;;;4250676;27;20486;-82
2023/10/16 07:46:58;;;;;;;5.35;1.30;;;9.00;99.90;;;;;;4246031;27;20042;-81
2023/10/16 07:49:15;;;;;;;6.38;1.40;;;9.20;99.90;;;;;;4244900;27;20036;-81
2023/10/16 07:51:19;;;;;;;6.03;1.55;;;9.20;99.90;;;;;;4249124;27;20078;-81
2023/10/16 07:53:20;;;;;;;8.43;1.23;;;9.20;99.90;;;;;;4231908;28;20435;-81
2023/10/16 07:55:38;;;;;;;6.82;1.15;;;9.30;99.90;;;;;;4250586;27;20122;-81
2023/10/16 07:57:39;;;;;;;4.00;1.38;;;9.50;99.90;;;;;;4221212;28;20460;-81
2023/10/16 07:59:43;;;;;;;6.82;1.67;;;9.30;99.90;;;;;;4233642;28;20124;-81
2023/10/16 08:01:54;;;;;;;4.75;1.15;;;9.30;99.90;;;;;;4216318;28;20115;-81
2023/10/16 08:03:54;;;;;;;4.25;1.15;;;10.20;99.90;;;;;;4234141;28;20039;-81
2023/10/16 08:05:55;;;;;;;4.15;0.90;;;9.30;99.90;;;;;;4233537;28;20373;-81
2023/10/16 08:08:00;;;;;;;4.50;0.70;;;9.40;99.90;;;;;;4233407;28;20126;-80
2023/10/16 08:10:40;;;;;;;1.67;0.60;;;9.30;99.90;;;;;;4233218;28;20047;-81
2023/10/16 08:12:42;;;;;;;4.63;1.48;;;9.50;99.90;;;;;;4236955;27;20043;-81
2023/10/16 08:14:51;;;;;;;9.02;1.45;;;9.60;99.90;;;;;;4240510;27;20567;-81
2023/10/16 08:16:58;;;;;;;7.22;1.58;;;9.70;99.90;;;;;;4249338;27;20031;-82
2023/10/16 08:18:58;;;;;;;6.82;0.90;;;10.40;99.90;;;;;;4240824;27;20388;-81
2023/10/16 08:21:06;;;;;;;1.88;1.08;;;;;;;;;;4218539;28;20055;-80
2023/10/16 08:23:08;;;;;;;3.65;0.85;;;11.00;99.90;;;;;;4233406;28;20096;-83
2023/10/16 08:25:20;;;;;;;4.43;1.05;;;;;;;;;;4218011;28;20040;-83
2023/10/16 08:27:23;;;;;;;3.75;1.02;;;;;;;;;;4221061;28;20574;-82
2023/10/16 08:29:34;;;;;;;5.03;1.42;;;;;;;;;;4204381;28;20045;-82
2023/10/16 08:31:35;;;;;;;3.70;1.05;;;;;;;;;;4232281;28;20047;-83
2023/10/16 08:33:36;;;;;;;6.90;1.10;;;;;;;;;;4214578;28;20523;-81
2023/10/16 08:35:41;;;;;;;3.80;1.13;;;11.40;99.90;;;;;;4232833;28;20096;-85
2023/10/16 08:37:42;;;;;;;5.25;0.82;;;12.10;99.90;;;;;;4214874;28;20123;-84
2023/10/16 08:39:49;;;;;;;4.00;0.90;;;;;;;;;;4217484;28;20048;-85
2023/10/16 08:41:53;;;;;;;6.18;1.02;;;11.80;99.90;;;;;;4232299;28;20071;-85
2023/10/16 08:43:54;;;;;;;5.60;2.13;;;13.60;99.90;;;;;;4232095;28;20097;-85
2023/10/16 08:45:55;;;;;;;1.95;0.77;;;14.50;99.90;;;;;;4232503;28;20047;-85
2023/10/16 08:48:05;;;;;;;4.45;0.88;;;;;;;;;;4232522;28;20093;-86
2023/10/16 08:50:17;;;;;;;6.43;1.00;;;;;;;;;;4232561;28;20067;-85
2023/10/16 08:52:21;;;;;;;3.53;0.47;;;;;;;;;;4214078;28;20047;-86
2023/10/16 08:56:45;;;;;;;6.10;0.60;;;;;;;;;;4220681;28;20054;-85
2023/10/16 08:58:48;;;;;;;2.83;0.70;;;;;;;;;;4249465;27;20056;-85
2023/10/16 09:00:50;;;;;;;7.05;0.50;;;;;;;;;;4248865;27;20503;-85
2023/10/16 09:02:52;;;;;;;3.15;0.65;;;;;;;;;;4249365;27;20411;-85
2023/10/16 09:04:55;;;;;;;2.03;0.80;;;15.30;99.90;;;;;;4249477;27;20049;-84
2023/10/16 09:06:56;;;;;;;7.63;0.73;;;14.20;99.90;;;;;;4249048;27;20053;-85
2023/10/16 09:08:58;;;;;;;3.28;0.45;;;13.80;99.90;;;;;;4249317;27;20742;-85
2023/10/16 09:11:06;;;;;;;2.22;0.63;;;13.50;99.90;;;;;;4249284;27;20054;-85
2023/10/16 09:13:19;;;;;;;2.58;0.60;;;12.60;99.90;;;;;;4249089;27;20407;-85
2023/10/16 09:15:24;;;;;;;3.92;0.50;;;13.10;99.90;;;;;;4249208;27;20043;-85
2023/10/16 09:17:25;;;;;;;2.63;0.70;;;12.90;99.90;;;;;;4249790;27;20051;-85
2023/10/16 09:19:35;;;;;;;3.95;0.50;;;12.90;99.90;;;;;;4249102;27;20122;-84
2023/10/16 09:21:38;;;;;;;4.13;0.88;;;12.90;99.90;;;;;;4249010;27;20042;-84
2023/10/16 09:23:51;;;;;;;3.42;0.77;;;13.10;99.90;;;;;;4248213;27;20047;-84
2023/10/16 09:25:55;;;;;;;4.45;0.70;;;13.30;99.90;;;;;;4249006;27;20046;-84
2023/10/16 09:27:56;;;;;;;2.45;0.40;;;13.20;99.90;;;;;;4230892;28;20118;-84
2023/10/16 09:30:02;;;;;;;2.35;0.45;;;13.90;99.90;;;;;;4230773;28;20055;-84
2023/10/16 09:32:06;;;;;;;5.88;0.68;;;14.60;99.90;;;;;;4248588;27;20039;-84
2023/10/16 09:34:07;;;;;;;2.95;0.63;;;15.00;99.90;;;;;;4248976;27;20490;-84
2023/10/16 09:36:17;;;;;;;2.45;0.45;;;15.30;99.90;;;;;;4230594;28;20046;-84
2023/10/16 09:38:18;;;;;;;8.63;1.08;;;15.40;99.90;;;;;;4238583;27;20480;-84
2023/10/16 09:40:19;;;;;;;1.73;0.40;;;15.10;99.90;;;;;;4244621;27;20082;-84
2023/10/16 09:42:26;;;;;;;3.67;1.23;;;15.10;99.90;;;;;;4248805;27;20526;-84
2023/10/16 09:44:39;;;;;;;5.63;0.70;;;15.40;99.90;;;;;;4249122;27;20505;-84
2023/10/16 09:48:47;;;;;;;3.17;0.85;;;15.10;99.90;;;;;;4248865;27;20079;-84
2023/10/16 09:50:49;;;;;;;3.20;0.75;;;15.30;99.90;;;;;;4248373;27;20059;-84
2023/10/16 09:52:50;;;;;;;4.68;0.80;;;14.80;99.90;;;;;;4242800;27;20042;-84
2023/10/16 09:54:51;;;;;;;5.05;1.00;;;15.40;99.90;;;;;;4248603;27;20054;-84
2023/10/16 09:56:59;;;;;;;3.05;0.55;;;15.40;99.90;;;;;;4241812;27;20043;-84
2023/10/16 09:59:03;;;;;;;0.93;0.50;;;15.30;99.90;;;;;;4231047;28;20132;-84
2023/10/16 10:01:13;;;;;;;2.88;0.47;;;15.20;99.90;;;;;;4231498;28;20462;-84
2023/10/16 10:03:17;;;;;;;5.60;1.15;;;15.20;99.90;;;;;;4244940;27;20088;-84
2023/10/16 10:05:22;;;;;;;2.33;0.60;;;15.50;99.90;;;;;;4248270;27;20092;-85
2023/10/16 10:07:34;;;;;;;2.40;1.33;;;15.90;99.90;;;;;;4248138;27;20046;-81
2023/10/16 10:09:41;;;;;;;2.55;0.63;;;16.30;99.90;;;;;;4231047;28;20039;-81
2023/10/16 10:12:13;;;;;;;4.95;0.50;;;;;;;;;;4231011;28;20054;-81
2023/10/16 10:16:29;;;;;;;3.15;1.00;;;;;;;;;;4247903;27;20046;-82
2023/10/16 10:18:32;;;;;;;3.72;0.55;;;;;;;;;;4247887;27;20043;-82
2023/10/16 10:20:41;;;;;;;6.40;1.00;;;;;;;;;;4242982;27;20487;-82
2023/10/16 10:22:44;;;;;;;1.70;0.68;;;;;;;;;;4241310;27;20406;-82
2023/10/16 10:24:51;;;;;;;5.05;0.70;;;;;;;;;;4248333;27;20414;-82
2023/10/16 10:26:52;;;;;;;2.40;0.60;;;;;;;;;;4237173;27;20043;-81
2023/10/16 10:29:09;;;;;;;5.28;0.50;;;;;;;;;;4231253;28;20046;-82
2023/10/16 10:31:12;;;;;;;4.30;0.70;;;;;;;;;;4231064;28;20410;-81
2023/10/16 10:33:30;;;;;;;2.22;0.60;;;16.70;99.90;;;;;;4244668;27;20435;-81
2023/10/16 10:35:38;;;;;;;2.53;0.30;;;18.20;99.90;;;;;;4228801;28;20460;-82
2023/10/16 10:37:45;;;;;;;1.38;0.30;;;18.00;99.90;;;;;;4229672;28;20131;-81
2023/10/16 10:39:47;;;;;;;3.20;0.88;;;18.00;99.90;;;;;;4242017;27;20040;-82
2023/10/16 10:41:50;;;;;;;3.67;0.50;;;;;;;;;;4249215;27;20079;-82
2023/10/16 10:44:03;;;;;;;3.03;0.43;;;;;;;;;;4233363;28;20051;-82
2023/10/16 10:46:07;;;;;;;4.05;0.32;;;;;;;;;;4251240;27;20051;-82
2023/10/16 10:48:09;;;;;;;4.78;0.60;;;;;;;;;;4233270;28;20104;-82
2023/10/16 10:50:14;;;;;;;2.45;0.73;;;18.20;99.90;;;;;;4251048;27;20434;-82
2023/10/16 10:52:17;;;;;;;4.40;1.67;;;;;;;;;;4251455;27;20039;-82
2023/10/16 10:54:23;;;;;;;3.78;0.40;;;19.00;99.90;;;;;;4251580;27;20106;-82
2023/10/16 10:56:50;;;;;;;2.35;0.55;;;18.50;99.90;;;;;;4251233;27;20118;-82
2023/10/16 10:58:54;;;;;;;3.20;0.32;;;18.20;99.90;;;;;;4250665;27;20049;-82
2023/10/16 11:01:02;;;;;;;5.40;0.68;;;18.30;99.90;;;;;;4233099;28;20058;-80
2023/10/16 11:03:08;;;;;;;6.18;0.93;;;18.40;99.90;;;;;;4251014;27;20039;-81
2023/10/16 11:05:22;;;;;;;3.22;0.40;;;18.40;99.90;;;;;;4251181;27;20043;-81
2023/10/16 11:07:59;;;;;;;1.65;0.70;;;18.40;99.90;;;;;;4251175;27;20402;-82
2023/10/16 11:10:00;;;;;;;3.63;0.50;;;18.50;99.90;;;;;;4233265;28;20052;-82
2023/10/16 11:12:01;;;;;;;7.68;0.95;;;18.70;99.90;;;;;;4228164;28;20097;-81
2023/10/16 11:14:04;;;;;;;3.30;0.88;;;18.70;99.90;;;;;;4243536;27;20048;-81
2023/10/16 11:16:08;;;;;;;5.63;0.70;;;18.80;99.90;;;;;;4233958;28;20047;-81
2023/10/16 11:18:11;;;;;;;4.00;0.50;;;18.80;99.90;;;;;;4241805;27;20050;-82
2023/10/16 11:20:27;;;;;;;6.30;0.95;;;18.90;99.90;;;;;;4238826;27;20093;-82
2023/10/16 11:22:27;;;;;;;3.13;0.50;;;19.00;99.90;;;;;;4233881;28;20516;-82
2023/10/16 11:24:29;;;;;;;4.45;0.50;;;19.10;99.90;;;;;;4233792;28;20054;-83
2023/10/16 11:26:34;;;;;;;2.92;0.60;;;19.10;99.90;;;;;;4233942;28;20088;-83
2023/10/16 11:28:37;;;;;;;6.10;0.60;;;19.10;99.90;;;;;;4215979;28;20094;-82
2023/10/16 11:30:39;;;;;;;7.57;0.88;;;19.20;99.90;;;;;;4233491;28;20049;-82
2023/10/16 11:32:46;;;;;;;2.80;0.65;;;19.20;99.90;;;;;;4233498;28;20051;-83
2023/10/16 11:34:50;;;;;;;3.95;0.50;;;19.20;99.90;;;;;;4233805;28;20046;-82
2023/10/16 11:36:51;;;;;;;3.92;0.80;;;19.20;99.90;;;;;;4235047;27;20079;-82
2023/10/16 11:38:53;;;;;;;5.05;0.60;;;19.20;99.90;;;;;;4250609;27;20039;-81
2023/10/16 11:40:55;;;;;;;5.72;1.00;;;19.10;99.90;;;;;;4250290;27;20047;-80
2023/10/16 11:42:58;;;;;;;3.22;0.60;;;19.00;99.90;;;;;;4231869;28;20047;-80
2023/10/16 11:45:00;;;;;;;3.78;0.50;;;18.70;99.90;;;;;;4232417;28;20040;-82
2023/10/16 11:47:03;;;;;;;2.80;0.95;;;18.50;99.90;;;;;;4231501;28;20063;-81
2023/10/16 11:49:22;;;;;;;3.20;0.90;;;18.30;99.90;;;;;;4249010;27;20095;-81
2023/10/16 11:51:26;;;;;;;;;;;18.20;99.90;;;;;;4232114;28;20099;-82
2023/10/16 11:53:29;;;;;;;3.38;0.50;;;18.00;99.90;;;;;;4250003;27;19915;-81
2023/10/16 11:55:29;;;;;;;3.55;0.47;;;17.90;99.90;;;;;;4230608;28;20040;-82
2023/10/16 11:57:31;;;;;;;4.70;0.63;;;18.00;99.90;;;;;;4231942;28;20796;-81
2023/10/16 11:59:32;;;;;;;9.20;0.90;;;18.10;99.90;;;;;;4243936;27;20040;-81
2023/10/16 12:01:33;;;;;;;4.93;0.70;;;18.20;99.90;;;;;;4214936;28;20051;-82
2023/10/16 12:03:37;;;;;;;6.00;0.80;;;18.20;99.90;;;;;;4250228;27;20055;-81
2023/10/16 12:05:38;;;;;;;1.95;0.50;;;18.20;99.90;;;;;;4249824;27;20051;-81
2023/10/16 12:07:43;;;;;;;3.58;0.73;;;18.10;99.90;;;;;;4231696;28;20044;-82
2023/10/16 12:09:51;;;;;;;5.72;1.17;;;18.00;99.90;;;;;;4249481;27;20570;-81
2023/10/16 12:11:54;;;;;;;2.00;0.30;;;17.70;99.90;;;;;;4250192;27;20047;-82
2023/10/16 12:13:55;;;;;;;4.38;0.60;;;17.50;99.90;;;;;;4231719;28;20056;-81
2023/10/16 12:15:57;;;;;;;2.85;0.68;;;17.30;99.90;;;;;;4231839;28;20057;-81
2023/10/16 12:18:00;;;;;;;3.28;0.65;;;17.20;99.90;;;;;;4249724;27;20538;-81
2023/10/16 12:20:08;;;;;;;6.28;1.15;;;17.10;99.90;;;;;;4249625;27;20534;-81
2023/10/16 12:22:10;;;;;;;6.65;0.73;;;17.00;99.90;;;;;;4231512;28;20530;-82
2023/10/16 12:24:11;;;;;;;5.53;0.85;;;17.00;99.90;;;;;;4231978;28;20057;-84
2023/10/16 12:26:11;;;;;;;4.28;1.45;;;17.20;99.90;;;;;;4231782;28;20079;-83
2023/10/16 12:28:12;;;;;;;4.95;0.73;;;17.20;99.90;;;;;;4228431;27;20197;-82
2023/10/16 12:30:14;;;;;;;4.07;0.98;;;17.40;99.90;;;;;;4225176;28;20040;-82
2023/10/16 12:32:14;;;;;;;3.40;0.40;;;17.50;99.90;;;;;;4249322;27;20035;-82
2023/10/16 12:34:17;;;;;;;4.65;0.60;;;17.50;99.90;;;;;;4249573;27;20552;-83
2023/10/16 12:36:18;;;;;;;3.28;0.75;;;17.60;99.90;;;;;;4249144;27;20045;-83
2023/10/16 12:38:19;;;;;;;5.43;1.13;;;17.60;99.90;;;;;;4249580;27;20043;-82
2023/10/16 12:40:37;;;;;;;3.63;1.00;;;17.60;99.90;;;;;;4231328;28;20040;-83
2023/10/16 12:42:38;;;;;;;2.92;0.60;;;17.20;99.90;;;;;;4231177;28;20048;-83
2023/10/16 12:44:39;;;;;;;4.35;0.60;;;17.60;99.90;;;;;;4231273;28;20051;-83